sensor_id;sensor_type;location;lat;lon;timestamp;temperature;humidity
26703;DHT22;14316;51.074;3.704;2023-11-19T00:00:16;13.40;99.90
26703;DHT22;14316;51.074;3.704;2023-11-19T00:02:42;13.40;99.90
26703;DHT22;14316;51.074;3.704;2023-11-19T00:05:09;13.40;99.90
26703;DHT22;14316;51.074;3.704;2023-11-19T00:07:37;13.40;99.90
26703;DHT22;14316;51.074;3.704;2023-11-19T00:10:11;13.30;99.90
26703;DHT22;14316;51.074;3.704;2023-11-19T00:12:47;13.30;99.90
26703;DHT22;14316;51.074;3.704;2023-11-19T00:15:14;13.30;99.90
26703;DHT22;14316;51.074;3.704;2023-11-19T00:17:41;13.30;99.90
26703;DHT22;14316;51.074;3.704;2023-11-19T00:20:20;13.30;99.90
26703;DHT22;14316;51.074;3.704;2023-11-19T00:22:49;13.30;99.90
26703;DHT22;14316;51.074;3.704;2023-11-19T00:25:19;13.30;99.90
26703;DHT22;14316;51.074;3.704;2023-11-19T00:27:45;13.30;99.90
26703;DHT22;14316;51.074;3.704;2023-11-19T00:30:11;13.40;99.90
26703;DHT22;14316;51.074;3.704;2023-11-19T00:32:37;13.40;99.90
26703;DHT22;14316;51.074;3.704;2023-11-19T00:35:05;13.30;99.90
26703;DHT22;14316;51.074;3.704;2023-11-19T00:37:32;13.30;99.90
26703;DHT22;14316;51.074;3.704;2023-11-19T00:39:57;13.20;99.90
26703;DHT22;14316;51.074;3.704;2023-11-19T00:42:24;13.20;99.90
26703;DHT22;14316;51.074;3.704;2023-11-19T00:44:50;13.20;99.90
26703;DHT22;14316;51.074;3.704;2023-11-19T00:47:17;13.20;99.90
26703;DHT22;14316;51.074;3.704;2023-11-19T00:49:46;13.10;99.90
26703;DHT22;14316;51.074;3.704;2023-11-19T00:52:14;13.10;99.90
26703;DHT22;14316;51.074;3.704;2023-11-19T00:54:40;13.10;99.90
26703;DHT22;14316;51.074;3.704;2023-11-19T00:57:06;13.00;99.90
26703;DHT22;14316;51.074;3.704;2023-11-19T00:59:32;13.00;99.90
26703;DHT22;14316;51.074;3.704;2023-11-19T01:01:58;12.90;99.90
26703;DHT22;14316;51.074;3.704;2023-11-19T01:04:29;12.90;99.90
26703;DHT22;14316;51.074;3.704;2023-11-19T01:06:55;12.90;99.90
26703;DHT22;14316;51.074;3.704;2023-11-19T01:09:21;12.90;99.90
26703;DHT22;14316;51.074;3.704;2023-11-19T01:11:47;12.90;99.90
26703;DHT22;14316;51.074;3.704;2023-11-19T01:14:13;12.90;99.90
26703;DHT22;14316;51.074;3.704;2023-11-19T01:16:39;12.90;99.90
26703;DHT22;14316;51.074;3.704;2023-11-19T01:19:05;12.90;99.90
26703;DHT22;14316;51.074;3.704;2023-11-19T01:21:31;12.90;99.90
26703;DHT22;14316;51.074;3.704;2023-11-19T01:24:00;12.90;99.90
26703;DHT22;14316;51.074;3.704;2023-11-19T01:26:26;12.90;99.90
26703;DHT22;14316;51.074;3.704;2023-11-19T01:28:52;12.90;99.90
26703;DHT22;14316;51.074;3.704;2023-11-19T01:31:18;12.90;99.90
26703;DHT22;14316;51.074;3.704;2023-11-19T01:33:45;12.90;99.90
26703;DHT22;14316;51.074;3.704;2023-11-19T01:36:14;12.90;99.90
26703;DHT22;14316;51.074;3.704;2023-11-19T01:38:40;12.80;99.90
26703;DHT22;14316;51.074;3.704;2023-11-19T01:41:06;12.80;99.90
26703;DHT22;14316;51.074;3.704;2023-11-19T01:43:37;12.70;99.90
26703;DHT22;14316;51.074;3.704;2023-11-19T01:46:05;12.70;99.90
26703;DHT22;14316;51.074;3.704;2023-11-19T01:48:34;12.70;99.90
26703;DHT22;14316;51.074;3.704;2023-11-19T01:51:02;12.70;99.90
26703;DHT22;14316;51.074;3.704;2023-11-19T01:53:30;12.70;99.90
26703;DHT22;14316;51.074;3.704;2023-11-19T01:55:57;12.70;99.90
26703;DHT22;14316;51.074;3.704;2023-11-19T01:58:23;12.70;99.90
26703;DHT22;14316;51.074;3.704;2023-11-19T02:00:50;12.60;99.90
26703;DHT22;14316;51.074;3.704;2023-11-19T02:03:16;12.60;99.90
26703;DHT22;14316;51.074;3.704;2023-11-19T02:05:42;12.60;99.90
26703;DHT22;14316;51.074;3.704;2023-11-19T02:08:08;12.50;99.90
26703;DHT22;14316;51.074;3.704;2023-11-19T02:10:34;12.50;99.90
26703;DHT22;14316;51.074;3.704;2023-11-19T02:13:01;12.50;99.90
26703;DHT22;14316;51.074;3.704;2023-11-19T02:15:28;12.50;99.90
26703;DHT22;14316;51.074;3.704;2023-11-19T02:17:54;12.40;99.90
26703;DHT22;14316;51.074;3.704;2023-11-19T02:20:20;12.50;99.90
26703;DHT22;14316;51.074;3.704;2023-11-19T02:22:47;12.40;99.90
26703;DHT22;14316;51.074;3.704;2023-11-19T02:25:43;12.30;99.90
26703;DHT22;14316;51.074;3.704;2023-11-19T02:28:09;12.40;99.90
26703;DHT22;14316;51.074;3.704;2023-11-19T02:30:37;12.30;99.90
26703;DHT22;14316;51.074;3.704;2023-11-19T02:33:03;12.30;99.90
26703;DHT22;14316;51.074;3.704;2023-11-19T02:35:32;12.30;99.90
26703;DHT22;14316;51.074;3.704;2023-11-19T02:37:58;12.30;99.90
26703;DHT22;14316;51.074;3.704;2023-11-19T02:40:29;12.40;99.90
26703;DHT22;14316;51.074;3.704;2023-11-19T02:42:55;12.30;99.90
26703;DHT22;14316;51.074;3.704;2023-11-19T02:45:23;12.40;99.90
26703;DHT22;14316;51.074;3.704;2023-11-19T02:47:49;12.40;99.90
26703;DHT22;14316;51.074;3.704;2023-11-19T02:50:17;12.40;99.90
26703;DHT22;14316;51.074;3.704;2023-11-19T02:52:52;12.40;99.90
26703;DHT22;14316;51.074;3.704;2023-11-19T02:55:19;12.40;99.90
26703;DHT22;14316;51.074;3.704;2023-11-19T02:57:45;12.40;99.90
26703;DHT22;14316;51.074;3.704;2023-11-19T03:00:17;12.40;99.90
26703;DHT22;14316;51.074;3.704;2023-11-19T03:02:44;12.40;99.90
26703;DHT22;14316;51.074;3.704;2023-11-19T03:05:19;12.40;99.90
26703;DHT22;14316;51.074;3.704;2023-11-19T03:07:45;12.50;99.90
26703;DHT22;14316;51.074;3.704;2023-11-19T03:10:12;12.50;99.90
26703;DHT22;14316;51.074;3.704;2023-11-19T03:12:43;12.60;99.90
26703;DHT22;14316;51.074;3.704;2023-11-19T03:15:09;12.50;99.90
26703;DHT22;14316;51.074;3.704;2023-11-19T03:17:39;12.50;99.90
26703;DHT22;14316;51.074;3.704;2023-11-19T03:20:07;12.50;99.90
26703;DHT22;14316;51.074;3.704;2023-11-19T03:22:36;12.50;99.90
26703;DHT22;14316;51.074;3.704;2023-11-19T03:25:03;12.50;99.90
26703;DHT22;14316;51.074;3.704;2023-11-19T03:27:29;12.50;99.90
26703;DHT22;14316;51.074;3.704;2023-11-19T03:30:02;12.40;99.90
26703;DHT22;14316;51.074;3.704;2023-11-19T03:32:33;12.40;99.90
26703;DHT22;14316;51.074;3.704;2023-11-19T03:35:01;12.40;99.90
26703;DHT22;14316;51.074;3.704;2023-11-19T03:37:27;12.30;99.90
26703;DHT22;14316;51.074;3.704;2023-11-19T03:39:54;12.20;99.90
26703;DHT22;14316;51.074;3.704;2023-11-19T03:42:20;12.20;99.90
26703;DHT22;14316;51.074;3.704;2023-11-19T03:44:47;12.10;99.90
26703;DHT22;14316;51.074;3.704;2023-11-19T03:47:13;12.10;99.90
26703;DHT22;14316;51.074;3.704;2023-11-19T03:49:39;12.10;99.90
26703;DHT22;14316;51.074;3.704;2023-11-19T03:52:05;12.00;99.90
26703;DHT22;14316;51.074;3.704;2023-11-19T03:54:31;12.00;99.90
26703;DHT22;14316;51.074;3.704;2023-11-19T03:56:58;12.00;99.90
26703;DHT22;14316;51.074;3.704;2023-11-19T03:59:25;11.90;99.90
26703;DHT22;14316;51.074;3.704;2023-11-19T04:01:51;11.90;99.90
26703;DHT22;14316;51.074;3.704;2023-11-19T04:04:19;11.90;99.90
26703;DHT22;14316;51.074;3.704;2023-11-19T04:06:45;11.90;99.90
26703;DHT22;14316;51.074;3.704;2023-11-19T04:09:11;11.90;99.90
26703;DHT22;14316;51.074;3.704;2023-11-19T04:11:36;11.80;99.90
26703;DHT22;14316;51.074;3.704;2023-11-19T04:14:02;11.80;99.90
26703;DHT22;14316;51.074;3.704;2023-11-19T04:16:28;11.70;99.90
26703;DHT22;14316;51.074;3.704;2023-11-19T04:18:54;11.80;99.90
26703;DHT22;14316;51.074;3.704;2023-11-19T04:21:20;11.70;99.90
26703;DHT22;14316;51.074;3.704;2023-11-19T04:23:46;11.80;99.90
26703;DHT22;14316;51.074;3.704;2023-11-19T04:26:12;11.70;99.90
26703;DHT22;14316;51.074;3.704;2023-11-19T04:28:38;11.70;99.90
26703;DHT22;14316;51.074;3.704;2023-11-19T04:31:04;11.70;99.90
26703;DHT22;14316;51.074;3.704;2023-11-19T04:33:31;11.60;99.90
26703;DHT22;14316;51.074;3.704;2023-11-19T04:35:57;11.60;99.90
26703;DHT22;14316;51.074;3.704;2023-11-19T04:38:23;11.60;99.90
26703;DHT22;14316;51.074;3.704;2023-11-19T04:40:49;11.60;99.90
26703;DHT22;14316;51.074;3.704;2023-11-19T04:43:15;11.50;99.90
26703;DHT22;14316;51.074;3.704;2023-11-19T04:45:41;11.50;99.90
26703;DHT22;14316;51.074;3.704;2023-11-19T04:48:07;11.50;99.90
26703;DHT22;14316;51.074;3.704;2023-11-19T04:50:34;11.50;99.90
26703;DHT22;14316;51.074;3.704;2023-11-19T04:53:00;11.50;99.90
26703;DHT22;14316;51.074;3.704;2023-11-19T04:55:26;11.50;99.90
26703;DHT22;14316;51.074;3.704;2023-11-19T04:57:54;11.50;99.90
26703;DHT22;14316;51.074;3.704;2023-11-19T05:00:20;11.50;99.90
26703;DHT22;14316;51.074;3.704;2023-11-19T05:02:47;11.40;99.90
26703;DHT22;14316;51.074;3.704;2023-11-19T05:05:13;11.40;99.90
26703;DHT22;14316;51.074;3.704;2023-11-19T05:07:40;11.30;99.90
26703;DHT22;14316;51.074;3.704;2023-11-19T05:10:07;11.40;99.90
26703;DHT22;14316;51.074;3.704;2023-11-19T05:12:33;11.30;99.90
26703;DHT22;14316;51.074;3.704;2023-11-19T05:14:59;11.30;99.90
26703;DHT22;14316;51.074;3.704;2023-11-19T05:17:26;11.30;99.90
26703;DHT22;14316;51.074;3.704;2023-11-19T05:19:52;11.30;99.90
26703;DHT22;14316;51.074;3.704;2023-11-19T05:22:17;11.30;99.90
26703;DHT22;14316;51.074;3.704;2023-11-19T05:24:43;11.30;99.90
26703;DHT22;14316;51.074;3.704;2023-11-19T05:27:09;11.30;99.90
26703;DHT22;14316;51.074;3.704;2023-11-19T05:29:37;11.30;99.90
26703;DHT22;14316;51.074;3.704;2023-11-19T05:32:05;11.20;99.90
26703;DHT22;14316;51.074;3.704;2023-11-19T05:34:31;11.30;99.90
26703;DHT22;14316;51.074;3.704;2023-11-19T05:36:57;11.30;99.90
26703;DHT22;14316;51.074;3.704;2023-11-19T05:39:23;11.30;99.90
26703;DHT22;14316;51.074;3.704;2023-11-19T05:41:50;11.40;99.90
26703;DHT22;14316;51.074;3.704;2023-11-19T05:44:17;11.40;99.90
26703;DHT22;14316;51.074;3.704;2023-11-19T05:46:43;11.40;99.90
26703;DHT22;14316;51.074;3.704;2023-11-19T05:49:10;11.40;99.90
26703;DHT22;14316;51.074;3.704;2023-11-19T05:51:39;11.50;99.90
26703;DHT22;14316;51.074;3.704;2023-11-19T05:54:07;11.40;99.90
26703;DHT22;14316;51.074;3.704;2023-11-19T05:56:33;11.30;99.90
26703;DHT22;14316;51.074;3.704;2023-11-19T05:59:00;11.30;99.90
26703;DHT22;14316;51.074;3.704;2023-11-19T06:01:27;11.30;99.90
26703;DHT22;14316;51.074;3.704;2023-11-19T06:03:52;11.20;99.90
26703;DHT22;14316;51.074;3.704;2023-11-19T06:06:18;11.20;99.90
26703;DHT22;14316;51.074;3.704;2023-11-19T06:08:45;11.20;99.90
26703;DHT22;14316;51.074;3.704;2023-11-19T06:11:11;11.20;99.90
26703;DHT22;14316;51.074;3.704;2023-11-19T06:13:44;11.20;99.90
26703;DHT22;14316;51.074;3.704;2023-11-19T06:16:10;11.20;99.90
26703;DHT22;14316;51.074;3.704;2023-11-19T06:18:36;11.20;99.90
26703;DHT22;14316;51.074;3.704;2023-11-19T06:21:03;11.20;99.90
26703;DHT22;14316;51.074;3.704;2023-11-19T06:23:29;11.20;99.90
26703;DHT22;14316;51.074;3.704;2023-11-19T06:25:55;11.10;99.90
26703;DHT22;14316;51.074;3.704;2023-11-19T06:28:21;11.10;99.90
26703;DHT22;14316;51.074;3.704;2023-11-19T06:30:47;11.10;99.90
26703;DHT22;14316;51.074;3.704;2023-11-19T06:33:13;11.10;99.90
26703;DHT22;14316;51.074;3.704;2023-11-19T06:35:39;11.10;99.90
26703;DHT22;14316;51.074;3.704;2023-11-19T06:38:05;11.00;99.90
26703;DHT22;14316;51.074;3.704;2023-11-19T06:40:32;11.00;99.90
26703;DHT22;14316;51.074;3.704;2023-11-19T06:42:59;11.00;99.90
26703;DHT22;14316;51.074;3.704;2023-11-19T06:45:25;10.90;99.90
26703;DHT22;14316;51.074;3.704;2023-11-19T06:47:51;10.90;99.90
26703;DHT22;14316;51.074;3.704;2023-11-19T06:50:16;10.90;99.90
26703;DHT22;14316;51.074;3.704;2023-11-19T06:52:45;10.90;99.90
26703;DHT22;14316;51.074;3.704;2023-11-19T06:55:11;10.90;99.90
26703;DHT22;14316;51.074;3.704;2023-11-19T06:57:37;10.90;99.90
26703;DHT22;14316;51.074;3.704;2023-11-19T07:00:03;10.90;99.90
26703;DHT22;14316;51.074;3.704;2023-11-19T07:02:31;10.90;99.90
26703;DHT22;14316;51.074;3.704;2023-11-19T07:04:58;10.90;99.90
26703;DHT22;14316;51.074;3.704;2023-11-19T07:07:24;10.90;99.90
26703;DHT22;14316;51.074;3.704;2023-11-19T07:09:51;10.90;99.90
26703;DHT22;14316;51.074;3.704;2023-11-19T07:12:17;10.90;99.90
26703;DHT22;14316;51.074;3.704;2023-11-19T07:14:43;10.90;99.90
26703;DHT22;14316;51.074;3.704;2023-11-19T07:17:09;10.90;99.90
26703;DHT22;14316;51.074;3.704;2023-11-19T07:19:36;10.90;99.90
26703;DHT22;14316;51.074;3.704;2023-11-19T07:22:04;11.00;99.90
26703;DHT22;14316;51.074;3.704;2023-11-19T07:24:30;11.00;99.90
26703;DHT22;14316;51.074;3.704;2023-11-19T07:26:56;11.00;99.90
26703;DHT22;14316;51.074;3.704;2023-11-19T07:29:22;11.00;99.90
26703;DHT22;14316;51.074;3.704;2023-11-19T07:31:50;11.10;99.90
26703;DHT22;14316;51.074;3.704;2023-11-19T07:34:16;11.20;99.90
26703;DHT22;14316;51.074;3.704;2023-11-19T07:36:42;11.20;99.90
26703;DHT22;14316;51.074;3.704;2023-11-19T07:39:08;11.20;99.90
26703;DHT22;14316;51.074;3.704;2023-11-19T07:41:34;11.20;99.90
26703;DHT22;14316;51.074;3.704;2023-11-19T07:44:00;11.20;99.90
26703;DHT22;14316;51.074;3.704;2023-11-19T07:46:26;11.30;99.90
26703;DHT22;14316;51.074;3.704;2023-11-19T07:48:52;11.30;99.90
26703;DHT22;14316;51.074;3.704;2023-11-19T07:51:18;11.30;99.90
26703;DHT22;14316;51.074;3.704;2023-11-19T07:53:44;11.40;99.90
26703;DHT22;14316;51.074;3.704;2023-11-19T07:56:10;11.40;99.90
26703;DHT22;14316;51.074;3.704;2023-11-19T07:58:36;11.40;99.90
26703;DHT22;14316;51.074;3.704;2023-11-19T08:01:02;11.40;99.90
26703;DHT22;14316;51.074;3.704;2023-11-19T08:03:28;11.40;99.90
26703;DHT22;14316;51.074;3.704;2023-11-19T08:05:58;11.40;99.90
26703;DHT22;14316;51.074;3.704;2023-11-19T08:08:23;11.50;99.90
26703;DHT22;14316;51.074;3.704;2023-11-19T08:10:49;11.60;99.90
26703;DHT22;14316;51.074;3.704;2023-11-19T08:13:18;11.60;99.90
26703;DHT22;14316;51.074;3.704;2023-11-19T08:15:44;11.60;99.90
26703;DHT22;14316;51.074;3.704;2023-11-19T08:18:10;11.70;99.90
26703;DHT22;14316;51.074;3.704;2023-11-19T08:20:36;11.70;99.90
26703;DHT22;14316;51.074;3.704;2023-11-19T08:23:05;11.70;99.90
26703;DHT22;14316;51.074;3.704;2023-11-19T08:25:31;11.70;99.90
26703;DHT22;14316;51.074;3.704;2023-11-19T08:27:56;11.80;99.90
26703;DHT22;14316;51.074;3.704;2023-11-19T08:30:22;11.80;99.90
26703;DHT22;14316;51.074;3.704;2023-11-19T08:32:48;11.90;99.90
26703;DHT22;14316;51.074;3.704;2023-11-19T08:35:13;12.00;99.90
26703;DHT22;14316;51.074;3.704;2023-11-19T08:37:39;12.00;99.90
26703;DHT22;14316;51.074;3.704;2023-11-19T08:40:05;12.10;99.90
26703;DHT22;14316;51.074;3.704;2023-11-19T08:42:32;12.20;99.90
26703;DHT22;14316;51.074;3.704;2023-11-19T08:44:58;12.20;99.90
26703;DHT22;14316;51.074;3.704;2023-11-19T08:47:24;12.30;99.90
26703;DHT22;14316;51.074;3.704;2023-11-19T08:49:52;12.40;99.90
26703;DHT22;14316;51.074;3.704;2023-11-19T08:52:19;12.50;99.90
26703;DHT22;14316;51.074;3.704;2023-11-19T08:54:44;12.60;99.90
26703;DHT22;14316;51.074;3.704;2023-11-19T08:57:10;12.70;99.90
26703;DHT22;14316;51.074;3.704;2023-11-19T08:59:36;12.80;99.90
26703;DHT22;14316;51.074;3.704;2023-11-19T09:02:05;12.80;99.90
26703;DHT22;14316;51.074;3.704;2023-11-19T09:04:32;12.80;99.90
26703;DHT22;14316;51.074;3.704;2023-11-19T09:06:59;12.70;99.90
26703;DHT22;14316;51.074;3.704;2023-11-19T09:09:25;12.40;99.90
26703;DHT22;14316;51.074;3.704;2023-11-19T09:11:51;12.30;99.90
26703;DHT22;14316;51.074;3.704;2023-11-19T09:14:17;12.20;99.90
26703;DHT22;14316;51.074;3.704;2023-11-19T09:16:44;12.20;99.90
26703;DHT22;14316;51.074;3.704;2023-11-19T09:19:09;12.20;99.90
26703;DHT22;14316;51.074;3.704;2023-11-19T09:21:35;12.20;99.90
26703;DHT22;14316;51.074;3.704;2023-11-19T09:24:04;12.20;99.90
26703;DHT22;14316;51.074;3.704;2023-11-19T09:26:30;12.20;99.90
26703;DHT22;14316;51.074;3.704;2023-11-19T09:28:56;12.10;99.90
26703;DHT22;14316;51.074;3.704;2023-11-19T09:31:22;12.10;99.90
26703;DHT22;14316;51.074;3.704;2023-11-19T09:33:47;12.10;99.90
26703;DHT22;14316;51.074;3.704;2023-11-19T09:36:13;12.10;99.90
26703;DHT22;14316;51.074;3.704;2023-11-19T09:38:43;12.10;99.90
26703;DHT22;14316;51.074;3.704;2023-11-19T09:41:10;12.30;99.90
26703;DHT22;14316;51.074;3.704;2023-11-19T09:43:39;12.40;99.90
26703;DHT22;14316;51.074;3.704;2023-11-19T09:46:06;12.70;99.90
26703;DHT22;14316;51.074;3.704;2023-11-19T09:48:36;13.10;99.90
26703;DHT22;14316;51.074;3.704;2023-11-19T09:51:04;13.20;99.90
26703;DHT22;14316;51.074;3.704;2023-11-19T09:53:31;13.10;99.90
26703;DHT22;14316;51.074;3.704;2023-11-19T09:55:58;12.90;99.90
26703;DHT22;14316;51.074;3.704;2023-11-19T09:58:26;12.50;99.90
26703;DHT22;14316;51.074;3.704;2023-11-19T10:00:52;12.30;99.90
26703;DHT22;14316;51.074;3.704;2023-11-19T10:03:19;12.30;99.90
26703;DHT22;14316;51.074;3.704;2023-11-19T10:05:44;12.20;99.90
26703;DHT22;14316;51.074;3.704;2023-11-19T10:08:10;12.30;99.90
26703;DHT22;14316;51.074;3.704;2023-11-19T10:10:37;12.10;99.90
26703;DHT22;14316;51.074;3.704;2023-11-19T10:13:03;12.00;99.90
26703;DHT22;14316;51.074;3.704;2023-11-19T10:15:35;12.00;99.90
26703;DHT22;14316;51.074;3.704;2023-11-19T10:18:02;11.90;99.90
26703;DHT22;14316;51.074;3.704;2023-11-19T10:20:35;12.00;99.90
26703;DHT22;14316;51.074;3.704;2023-11-19T10:23:01;12.10;99.90
26703;DHT22;14316;51.074;3.704;2023-11-19T10:25:28;12.10;99.90
26703;DHT22;14316;51.074;3.704;2023-11-19T10:27:55;12.10;99.90
26703;DHT22;14316;51.074;3.704;2023-11-19T10:30:29;12.20;99.90
26703;DHT22;14316;51.074;3.704;2023-11-19T10:33:12;12.20;99.90
26703;DHT22;14316;51.074;3.704;2023-11-19T10:35:54;12.30;99.90
26703;DHT22;14316;51.074;3.704;2023-11-19T10:38:20;12.50;99.90
26703;DHT22;14316;51.074;3.704;2023-11-19T10:40:50;12.70;99.90
26703;DHT22;14316;51.074;3.704;2023-11-19T10:43:19;12.70;99.90
26703;DHT22;14316;51.074;3.704;2023-11-19T10:45:48;12.70;99.90
26703;DHT22;14316;51.074;3.704;2023-11-19T10:48:14;12.60;99.90
26703;DHT22;14316;51.074;3.704;2023-11-19T10:50:42;12.60;99.90
26703;DHT22;14316;51.074;3.704;2023-11-19T10:53:10;12.70;99.90
26703;DHT22;14316;51.074;3.704;2023-11-19T10:55:37;12.70;99.90
26703;DHT22;14316;51.074;3.704;2023-11-19T10:58:08;12.80;99.90
26703;DHT22;14316;51.074;3.704;2023-11-19T11:03:18;12.90;99.90
26703;DHT22;14316;51.074;3.704;2023-11-19T11:05:48;13.00;99.90
26703;DHT22;14316;51.074;3.704;2023-11-19T11:08:15;13.00;99.90
26703;DHT22;14316;51.074;3.704;2023-11-19T11:10:55;13.10;99.90
26703;DHT22;14316;51.074;3.704;2023-11-19T11:13:25;13.30;99.90
26703;DHT22;14316;51.074;3.704;2023-11-19T11:15:53;13.40;99.90
26703;DHT22;14316;51.074;3.704;2023-11-19T11:18:22;13.60;99.90
26703;DHT22;14316;51.074;3.704;2023-11-19T11:20:54;13.70;99.90
26703;DHT22;14316;51.074;3.704;2023-11-19T11:29:10;13.40;99.90
26703;DHT22;14316;51.074;3.704;2023-11-19T11:34:29;12.70;99.90
26703;DHT22;14316;51.074;3.704;2023-11-19T11:40:02;12.30;99.90
26703;DHT22;14316;51.074;3.704;2023-11-19T11:42:36;12.20;99.90
26703;DHT22;14316;51.074;3.704;2023-11-19T11:45:07;12.10;99.90
26703;DHT22;14316;51.074;3.704;2023-11-19T11:50:17;12.00;99.90
26703;DHT22;14316;51.074;3.704;2023-11-19T11:55:28;11.90;99.90
26703;DHT22;14316;51.074;3.704;2023-11-19T11:57:58;11.90;99.90
26703;DHT22;14316;51.074;3.704;2023-11-19T12:00:36;12.40;99.90
26703;DHT22;14316;51.074;3.704;2023-11-19T12:03:05;12.70;99.90
26703;DHT22;14316;51.074;3.704;2023-11-19T12:05:31;13.10;99.90
26703;DHT22;14316;51.074;3.704;2023-11-19T12:08:06;13.20;99.90
26703;DHT22;14316;51.074;3.704;2023-11-19T12:10:46;13.40;99.90
26703;DHT22;14316;51.074;3.704;2023-11-19T12:13:13;13.60;99.90
26703;DHT22;14316;51.074;3.704;2023-11-19T12:18:27;13.30;99.90
26703;DHT22;14316;51.074;3.704;2023-11-19T12:20:54;13.30;99.90
26703;DHT22;14316;51.074;3.704;2023-11-19T12:23:21;13.10;99.90
26703;DHT22;14316;51.074;3.704;2023-11-19T12:25:47;13.30;99.90
26703;DHT22;14316;51.074;3.704;2023-11-19T12:28:14;13.70;99.90
26703;DHT22;14316;51.074;3.704;2023-11-19T12:30:42;13.60;99.90
26703;DHT22;14316;51.074;3.704;2023-11-19T12:33:12;13.30;99.90
26703;DHT22;14316;51.074;3.704;2023-11-19T12:35:42;13.20;99.90
26703;DHT22;14316;51.074;3.704;2023-11-19T12:38:25;13.10;99.90
26703;DHT22;14316;51.074;3.704;2023-11-19T12:41:07;12.80;99.90
26703;DHT22;14316;51.074;3.704;2023-11-19T12:43:34;12.50;99.90
26703;DHT22;14316;51.074;3.704;2023-11-19T12:46:01;12.30;99.90
26703;DHT22;14316;51.074;3.704;2023-11-19T12:48:27;12.10;99.90
26703;DHT22;14316;51.074;3.704;2023-11-19T12:50:58;12.10;99.90
26703;DHT22;14316;51.074;3.704;2023-11-19T12:53:26;12.00;99.90
26703;DHT22;14316;51.074;3.704;2023-11-19T12:55:53;12.20;99.90
26703;DHT22;14316;51.074;3.704;2023-11-19T12:58:30;12.50;99.90
26703;DHT22;14316;51.074;3.704;2023-11-19T13:03:30;12.80;99.90
26703;DHT22;14316;51.074;3.704;2023-11-19T13:06:10;12.90;99.90
26703;DHT22;14316;51.074;3.704;2023-11-19T13:08:41;13.10;99.90
26703;DHT22;14316;51.074;3.704;2023-11-19T13:11:09;13.00;99.90
26703;DHT22;14316;51.074;3.704;2023-11-19T13:14:00;13.20;99.90
26703;DHT22;14316;51.074;3.704;2023-11-19T13:16:29;13.70;99.90
26703;DHT22;14316;51.074;3.704;2023-11-19T13:18:55;13.60;99.90
26703;DHT22;14316;51.074;3.704;2023-11-19T13:21:21;13.30;99.90
26703;DHT22;14316;51.074;3.704;2023-11-19T13:23:46;13.00;99.90
26703;DHT22;14316;51.074;3.704;2023-11-19T13:26:12;12.90;99.90
26703;DHT22;14316;51.074;3.704;2023-11-19T13:28:38;12.80;99.90
26703;DHT22;14316;51.074;3.704;2023-11-19T13:31:05;12.70;99.90
26703;DHT22;14316;51.074;3.704;2023-11-19T13:33:30;12.60;99.90
26703;DHT22;14316;51.074;3.704;2023-11-19T13:35:56;12.60;99.90
26703;DHT22;14316;51.074;3.704;2023-11-19T13:38:22;12.50;99.90
26703;DHT22;14316;51.074;3.704;2023-11-19T13:40:51;12.40;99.90
26703;DHT22;14316;51.074;3.704;2023-11-19T13:43:18;12.40;99.90
26703;DHT22;14316;51.074;3.704;2023-11-19T13:45:43;12.30;99.90
26703;DHT22;14316;51.074;3.704;2023-11-19T13:48:09;12.20;99.90
26703;DHT22;14316;51.074;3.704;2023-11-19T13:50:35;12.20;99.90
26703;DHT22;14316;51.074;3.704;2023-11-19T13:53:00;12.10;99.90
26703;DHT22;14316;51.074;3.704;2023-11-19T13:55:26;12.00;99.90
26703;DHT22;14316;51.074;3.704;2023-11-19T13:57:52;11.90;99.90
26703;DHT22;14316;51.074;3.704;2023-11-19T14:00:18;11.80;99.90
26703;DHT22;14316;51.074;3.704;2023-11-19T14:02:47;11.90;99.90
26703;DHT22;14316;51.074;3.704;2023-11-19T14:05:14;11.90;99.90
26703;DHT22;14316;51.074;3.704;2023-11-19T14:07:41;12.00;99.90
26703;DHT22;14316;51.074;3.704;2023-11-19T14:10:07;12.10;99.90
26703;DHT22;14316;51.074;3.704;2023-11-19T14:12:39;12.10;99.90
26703;DHT22;14316;51.074;3.704;2023-11-19T14:15:09;12.00;99.90
26703;DHT22;14316;51.074;3.704;2023-11-19T14:17:36;12.00;99.90
26703;DHT22;14316;51.074;3.704;2023-11-19T14:20:05;11.90;99.90
26703;DHT22;14316;51.074;3.704;2023-11-19T14:22:42;11.80;99.90
26703;DHT22;14316;51.074;3.704;2023-11-19T14:25:09;11.80;99.90
26703;DHT22;14316;51.074;3.704;2023-11-19T14:27:41;11.80;99.90
26703;DHT22;14316;51.074;3.704;2023-11-19T14:30:11;11.80;99.90
26703;DHT22;14316;51.074;3.704;2023-11-19T14:32:37;11.80;99.90
26703;DHT22;14316;51.074;3.704;2023-11-19T14:35:04;11.80;99.90
26703;DHT22;14316;51.074;3.704;2023-11-19T14:37:30;11.90;99.90
26703;DHT22;14316;51.074;3.704;2023-11-19T14:39:56;11.90;99.90
26703;DHT22;14316;51.074;3.704;2023-11-19T14:42:23;11.90;99.90
26703;DHT22;14316;51.074;3.704;2023-11-19T14:44:54;11.90;99.90
26703;DHT22;14316;51.074;3.704;2023-11-19T14:47:21;12.00;99.90
26703;DHT22;14316;51.074;3.704;2023-11-19T14:49:47;12.00;99.90
26703;DHT22;14316;51.074;3.704;2023-11-19T14:52:13;12.00;99.90
26703;DHT22;14316;51.074;3.704;2023-11-19T14:54:39;12.10;99.90
26703;DHT22;14316;51.074;3.704;2023-11-19T14:57:05;12.10;99.90
26703;DHT22;14316;51.074;3.704;2023-11-19T14:59:33;12.20;99.90
26703;DHT22;14316;51.074;3.704;2023-11-19T15:02:00;12.20;99.90
26703;DHT22;14316;51.074;3.704;2023-11-19T15:04:26;12.20;99.90
26703;DHT22;14316;51.074;3.704;2023-11-19T15:06:52;12.00;99.90
26703;DHT22;14316;51.074;3.704;2023-11-19T15:09:19;11.90;99.90
26703;DHT22;14316;51.074;3.704;2023-11-19T15:11:47;11.90;99.90
26703;DHT22;14316;51.074;3.704;2023-11-19T15:14:16;11.80;99.90
26703;DHT22;14316;51.074;3.704;2023-11-19T15:16:53;11.70;99.90
26703;DHT22;14316;51.074;3.704;2023-11-19T15:19:19;11.70;99.90
26703;DHT22;14316;51.074;3.704;2023-11-19T15:21:45;11.70;99.90
26703;DHT22;14316;51.074;3.704;2023-11-19T15:24:11;11.70;99.90
26703;DHT22;14316;51.074;3.704;2023-11-19T15:26:38;11.70;99.90
26703;DHT22;14316;51.074;3.704;2023-11-19T15:29:04;11.70;99.90
26703;DHT22;14316;51.074;3.704;2023-11-19T15:31:30;11.70;99.90
26703;DHT22;14316;51.074;3.704;2023-11-19T15:33:56;11.60;99.90
26703;DHT22;14316;51.074;3.704;2023-11-19T15:36:22;11.60;99.90
26703;DHT22;14316;51.074;3.704;2023-11-19T15:38:48;11.60;99.90
26703;DHT22;14316;51.074;3.704;2023-11-19T15:41:14;11.50;99.90
26703;DHT22;14316;51.074;3.704;2023-11-19T15:43:40;11.50;99.90
26703;DHT22;14316;51.074;3.704;2023-11-19T15:46:07;11.50;99.90
26703;DHT22;14316;51.074;3.704;2023-11-19T15:48:33;11.40;99.90
26703;DHT22;14316;51.074;3.704;2023-11-19T15:50:59;11.40;99.90
26703;DHT22;14316;51.074;3.704;2023-11-19T15:53:25;11.40;99.90
26703;DHT22;14316;51.074;3.704;2023-11-19T15:55:51;11.40;99.90